sensor_id;sensor_type;location;lat;lon;timestamp;P1;durP1;ratioP1;P2;durP2;ratioP2
18820;SDS011;9539;59.332;18.034;2024-01-10T00:01:34;1.80;;;1.70;;
18820;SDS011;9539;59.332;18.034;2024-01-10T00:03:56;2.25;;;1.67;;
18820;SDS011;9539;59.332;18.034;2024-01-10T00:06:18;1.52;;;1.40;;
18820;SDS011;9539;59.332;18.034;2024-01-10T00:08:40;1.80;;;1.70;;
18820;SDS011;9539;59.332;18.034;2024-01-10T00:11:04;2.65;;;1.67;;
18820;SDS011;9539;59.332;18.034;2024-01-10T00:13:26;1.60;;;1.50;;
18820;SDS011;9539;59.332;18.034;2024-01-10T00:15:49;1.50;;;1.40;;
18820;SDS011;9539;59.332;18.034;2024-01-10T00:18:11;2.05;;;1.60;;
18820;SDS011;9539;59.332;18.034;2024-01-10T00:20:33;2.00;;;1.80;;
18820;SDS011;9539;59.332;18.034;2024-01-10T00:22:54;2.38;;;1.88;;
18820;SDS011;9539;59.332;18.034;2024-01-10T00:25:16;2.25;;;1.70;;
18820;SDS011;9539;59.332;18.034;2024-01-10T00:27:40;1.15;;;1.13;;
18820;SDS011;9539;59.332;18.034;2024-01-10T00:30:02;1.60;;;1.50;;
18820;SDS011;9539;59.332;18.034;2024-01-10T00:32:25;1.92;;;1.70;;
18820;SDS011;9539;59.332;18.034;2024-01-10T00:34:47;1.85;;;1.50;;
18820;SDS011;9539;59.332;18.034;2024-01-10T00:37:09;1.60;;;1.48;;
18820;SDS011;9539;59.332;18.034;2024-01-10T00:39:31;3.20;;;1.60;;
18820;SDS011;9539;59.332;18.034;2024-01-10T00:41:53;1.90;;;1.70;;
18820;SDS011;9539;59.332;18.034;2024-01-10T00:44:17;2.80;;;1.40;;
18820;SDS011;9539;59.332;18.034;2024-01-10T00:46:39;1.60;;;1.50;;
18820;SDS011;9539;59.332;18.034;2024-01-10T00:49:00;2.25;;;1.50;;
18820;SDS011;9539;59.332;18.034;2024-01-10T00:51:22;2.53;;;1.70;;
18820;SDS011;9539;59.332;18.034;2024-01-10T00:53:44;3.10;;;1.70;;
18820;SDS011;9539;59.332;18.034;2024-01-10T00:56:06;2.25;;;1.60;;
18820;SDS011;9539;59.332;18.034;2024-01-10T00:58:28;1.83;;;1.67;;
18820;SDS011;9539;59.332;18.034;2024-01-10T01:00:53;2.05;;;1.50;;
18820;SDS011;9539;59.332;18.034;2024-01-10T01:03:15;1.48;;;1.38;;
18820;SDS011;9539;59.332;18.034;2024-01-10T01:05:37;2.38;;;1.77;;
18820;SDS011;9539;59.332;18.034;2024-01-10T01:07:59;2.22;;;1.77;;
18820;SDS011;9539;59.332;18.034;2024-01-10T01:10:21;2.00;;;1.50;;
18820;SDS011;9539;59.332;18.034;2024-01-10T01:12:43;4.90;;;1.42;;
18820;SDS011;9539;59.332;18.034;2024-01-10T01:15:05;1.60;;;1.50;;
18820;SDS011;9539;59.332;18.034;2024-01-10T01:17:29;1.95;;;1.70;;
18820;SDS011;9539;59.332;18.034;2024-01-10T01:19:51;1.67;;;1.58;;
18820;SDS011;9539;59.332;18.034;2024-01-10T01:22:13;1.63;;;1.52;;
18820;SDS011;9539;59.332;18.034;2024-01-10T01:24:35;1.77;;;1.50;;
18820;SDS011;9539;59.332;18.034;2024-01-10T01:26:57;1.60;;;1.50;;
18820;SDS011;9539;59.332;18.034;2024-01-10T01:29:20;2.25;;;1.60;;
18820;SDS011;9539;59.332;18.034;2024-01-10T01:31:42;1.75;;;1.40;;
18820;SDS011;9539;59.332;18.034;2024-01-10T01:34:05;1.50;;;1.40;;
18820;SDS011;9539;59.332;18.034;2024-01-10T01:36:27;1.73;;;1.63;;
18820;SDS011;9539;59.332;18.034;2024-01-10T01:38:49;2.50;;;1.50;;
18820;SDS011;9539;59.332;18.034;2024-01-10T01:41:11;1.75;;;1.65;;
18820;SDS011;9539;59.332;18.034;2024-01-10T01:43:35;1.58;;;1.38;;
18820;SDS011;9539;59.332;18.034;2024-01-10T01:45:57;2.10;;;1.40;;
18820;SDS011;9539;59.332;18.034;2024-01-10T01:48:19;1.65;;;1.40;;
18820;SDS011;9539;59.332;18.034;2024-01-10T01:50:43;1.38;;;1.27;;
18820;SDS011;9539;59.332;18.034;2024-01-10T01:53:07;1.63;;;1.50;;
18820;SDS011;9539;59.332;18.034;2024-01-10T01:55:29;1.50;;;1.40;;
18820;SDS011;9539;59.332;18.034;2024-01-10T01:57:51;1.65;;;1.38;;
18820;SDS011;9539;59.332;18.034;2024-01-10T02:00:13;4.03;;;1.95;;
18820;SDS011;9539;59.332;18.034;2024-01-10T02:02:36;2.55;;;1.52;;
18820;SDS011;9539;59.332;18.034;2024-01-10T02:04:59;2.05;;;1.50;;
18820;SDS011;9539;59.332;18.034;2024-01-10T02:07:23;1.40;;;1.30;;
18820;SDS011;9539;59.332;18.034;2024-01-10T02:09:45;2.63;;;1.60;;
18820;SDS011;9539;59.332;18.034;2024-01-10T02:12:07;1.63;;;1.27;;
18820;SDS011;9539;59.332;18.034;2024-01-10T02:14:30;2.85;;;1.50;;
18820;SDS011;9539;59.332;18.034;2024-01-10T02:16:52;1.60;;;1.50;;
18820;SDS011;9539;59.332;18.034;2024-01-10T02:19:18;1.60;;;1.45;;
18820;SDS011;9539;59.332;18.034;2024-01-10T02:21:41;1.50;;;1.40;;
18820;SDS011;9539;59.332;18.034;2024-01-10T02:24:04;1.50;;;1.40;;
18820;SDS011;9539;59.332;18.034;2024-01-10T02:26:29;4.05;;;1.50;;
18820;SDS011;9539;59.332;18.034;2024-01-10T02:28:51;1.85;;;1.48;;
18820;SDS011;9539;59.332;18.034;2024-01-10T02:31:13;2.30;;;1.70;;
18820;SDS011;9539;59.332;18.034;2024-01-10T02:33:36;1.50;;;1.40;;
18820;SDS011;9539;59.332;18.034;2024-01-10T02:35:58;2.22;;;1.50;;
18820;SDS011;9539;59.332;18.034;2024-01-10T02:38:20;1.73;;;1.58;;
18820;SDS011;9539;59.332;18.034;2024-01-10T02:40:43;1.40;;;1.30;;
18820;SDS011;9539;59.332;18.034;2024-01-10T02:43:07;2.55;;;1.48;;
18820;SDS011;9539;59.332;18.034;2024-01-10T02:45:30;3.53;;;1.63;;
18820;SDS011;9539;59.332;18.034;2024-01-10T02:47:52;1.60;;;1.50;;
18820;SDS011;9539;59.332;18.034;2024-01-10T02:50:14;1.45;;;1.35;;
18820;SDS011;9539;59.332;18.034;2024-01-10T02:52:36;1.75;;;1.52;;
18820;SDS011;9539;59.332;18.034;2024-01-10T02:54:58;1.50;;;1.40;;
18820;SDS011;9539;59.332;18.034;2024-01-10T02:57:20;1.50;;;1.40;;
18820;SDS011;9539;59.332;18.034;2024-01-10T02:59:44;1.90;;;1.38;;
18820;SDS011;9539;59.332;18.034;2024-01-10T03:02:06;1.48;;;1.38;;
18820;SDS011;9539;59.332;18.034;2024-01-10T03:04:28;1.65;;;1.50;;
18820;SDS011;9539;59.332;18.034;2024-01-10T03:06:50;2.67;;;1.27;;
18820;SDS011;9539;59.332;18.034;2024-01-10T03:09:12;1.50;;;1.40;;
18820;SDS011;9539;59.332;18.034;2024-01-10T03:11:34;2.53;;;1.38;;
18820;SDS011;9539;59.332;18.034;2024-01-10T03:14:00;1.50;;;1.40;;
18820;SDS011;9539;59.332;18.034;2024-01-10T03:16:25;1.95;;;1.40;;
18820;SDS011;9539;59.332;18.034;2024-01-10T03:18:47;2.53;;;1.38;;
18820;SDS011;9539;59.332;18.034;2024-01-10T03:21:09;1.30;;;1.20;;
18820;SDS011;9539;59.332;18.034;2024-01-10T03:23:31;1.58;;;1.30;;
18820;SDS011;9539;59.332;18.034;2024-01-10T03:25:54;1.35;;;1.25;;
18820;SDS011;9539;59.332;18.034;2024-01-10T03:28:20;1.30;;;1.20;;
18820;SDS011;9539;59.332;18.034;2024-01-10T03:30:42;1.35;;;1.30;;
18820;SDS011;9539;59.332;18.034;2024-01-10T03:33:05;1.38;;;1.25;;
18820;SDS011;9539;59.332;18.034;2024-01-10T03:35:27;1.45;;;1.30;;
18820;SDS011;9539;59.332;18.034;2024-01-10T03:37:49;1.40;;;1.30;;
18820;SDS011;9539;59.332;18.034;2024-01-10T03:40:12;1.40;;;1.30;;
18820;SDS011;9539;59.332;18.034;2024-01-10T03:42:34;3.53;;;1.40;;
18820;SDS011;9539;59.332;18.034;2024-01-10T03:44:56;1.17;;;1.17;;
18820;SDS011;9539;59.332;18.034;2024-01-10T03:47:19;1.40;;;1.27;;
18820;SDS011;9539;59.332;18.034;2024-01-10T03:49:43;2.13;;;1.40;;
18820;SDS011;9539;59.332;18.034;2024-01-10T03:52:05;1.40;;;1.30;;
18820;SDS011;9539;59.332;18.034;2024-01-10T03:54:27;1.23;;;1.20;;
18820;SDS011;9539;59.332;18.034;2024-01-10T03:56:49;1.70;;;1.42;;
18820;SDS011;9539;59.332;18.034;2024-01-10T03:59:11;1.73;;;1.33;;
18820;SDS011;9539;59.332;18.034;2024-01-10T04:01:33;1.30;;;1.30;;
18820;SDS011;9539;59.332;18.034;2024-01-10T04:03:55;2.42;;;1.50;;
18820;SDS011;9539;59.332;18.034;2024-01-10T04:06:19;1.90;;;1.30;;
18820;SDS011;9539;59.332;18.034;2024-01-10T04:08:41;3.28;;;1.40;;
18820;SDS011;9539;59.332;18.034;2024-01-10T04:11:03;3.45;;;1.30;;
18820;SDS011;9539;59.332;18.034;2024-01-10T04:13:25;1.92;;;1.50;;
18820;SDS011;9539;59.332;18.034;2024-01-10T04:15:47;1.65;;;1.13;;
18820;SDS011;9539;59.332;18.034;2024-01-10T04:18:09;1.42;;;1.33;;
18820;SDS011;9539;59.332;18.034;2024-01-10T04:20:31;2.53;;;1.30;;
18820;SDS011;9539;59.332;18.034;2024-01-10T04:22:55;3.38;;;1.40;;
18820;SDS011;9539;59.332;18.034;2024-01-10T04:25:17;1.45;;;1.35;;
18820;SDS011;9539;59.332;18.034;2024-01-10T04:27:39;2.20;;;1.50;;
18820;SDS011;9539;59.332;18.034;2024-01-10T04:30:01;1.55;;;1.42;;
18820;SDS011;9539;59.332;18.034;2024-01-10T04:32:23;2.22;;;1.50;;
18820;SDS011;9539;59.332;18.034;2024-01-10T04:34:45;3.13;;;1.27;;
18820;SDS011;9539;59.332;18.034;2024-01-10T04:37:07;2.17;;;1.40;;
18820;SDS011;9539;59.332;18.034;2024-01-10T04:39:30;2.58;;;1.40;;
18820;SDS011;9539;59.332;18.034;2024-01-10T04:41:52;1.48;;;1.38;;
18820;SDS011;9539;59.332;18.034;2024-01-10T04:44:15;1.33;;;1.23;;
18820;SDS011;9539;59.332;18.034;2024-01-10T04:46:37;1.80;;;1.40;;
18820;SDS011;9539;59.332;18.034;2024-01-10T04:49:00;1.40;;;1.30;;
18820;SDS011;9539;59.332;18.034;2024-01-10T04:51:22;1.65;;;1.42;;
18820;SDS011;9539;59.332;18.034;2024-01-10T04:53:44;1.75;;;1.48;;
18820;SDS011;9539;59.332;18.034;2024-01-10T04:56:07;1.40;;;1.30;;
18820;SDS011;9539;59.332;18.034;2024-01-10T04:58:29;2.80;;;1.38;;
18820;SDS011;9539;59.332;18.034;2024-01-10T05:00:53;2.15;;;1.60;;
18820;SDS011;9539;59.332;18.034;2024-01-10T05:03:15;1.42;;;1.33;;
18820;SDS011;9539;59.332;18.034;2024-01-10T05:05:37;2.25;;;1.70;;
18820;SDS011;9539;59.332;18.034;2024-01-10T05:07:59;2.97;;;1.48;;
18820;SDS011;9539;59.332;18.034;2024-01-10T05:10:22;2.13;;;1.50;;
18820;SDS011;9539;59.332;18.034;2024-01-10T05:12:45;1.90;;;1.80;;
18820;SDS011;9539;59.332;18.034;2024-01-10T05:15:08;3.05;;;1.63;;
18820;SDS011;9539;59.332;18.034;2024-01-10T05:17:30;2.08;;;1.50;;
18820;SDS011;9539;59.332;18.034;2024-01-10T05:19:53;1.30;;;1.20;;
18820;SDS011;9539;59.332;18.034;2024-01-10T05:22:15;1.63;;;1.50;;
18820;SDS011;9539;59.332;18.034;2024-01-10T05:24:37;1.52;;;1.42;;
18820;SDS011;9539;59.332;18.034;2024-01-10T05:26:59;1.40;;;1.30;;
18820;SDS011;9539;59.332;18.034;2024-01-10T05:29:22;3.35;;;1.55;;
18820;SDS011;9539;59.332;18.034;2024-01-10T05:31:45;2.42;;;1.55;;
18820;SDS011;9539;59.332;18.034;2024-01-10T05:34:06;3.53;;;1.40;;
18820;SDS011;9539;59.332;18.034;2024-01-10T05:36:28;2.03;;;1.30;;
18820;SDS011;9539;59.332;18.034;2024-01-10T05:38:50;3.80;;;1.30;;
18820;SDS011;9539;59.332;18.034;2024-01-10T05:41:12;3.42;;;1.48;;
18820;SDS011;9539;59.332;18.034;2024-01-10T05:43:35;1.50;;;1.40;;
18820;SDS011;9539;59.332;18.034;2024-01-10T05:45:59;2.25;;;1.50;;
18820;SDS011;9539;59.332;18.034;2024-01-10T05:48:21;2.80;;;1.45;;
18820;SDS011;9539;59.332;18.034;2024-01-10T05:50:43;2.38;;;1.77;;
18820;SDS011;9539;59.332;18.034;2024-01-10T05:53:05;1.98;;;1.67;;
18820;SDS011;9539;59.332;18.034;2024-01-10T05:55:29;2.85;;;1.88;;
18820;SDS011;9539;59.332;18.034;2024-01-10T05:57:52;2.28;;;1.50;;
18820;SDS011;9539;59.332;18.034;2024-01-10T06:00:14;2.30;;;1.60;;
18820;SDS011;9539;59.332;18.034;2024-01-10T06:02:38;2.20;;;1.30;;
18820;SDS011;9539;59.332;18.034;2024-01-10T06:05:01;1.85;;;1.60;;
18820;SDS011;9539;59.332;18.034;2024-01-10T06:07:25;2.92;;;1.40;;
18820;SDS011;9539;59.332;18.034;2024-01-10T06:09:47;2.50;;;1.50;;
18820;SDS011;9539;59.332;18.034;2024-01-10T06:12:09;2.08;;;1.40;;
18820;SDS011;9539;59.332;18.034;2024-01-10T06:14:31;1.67;;;1.58;;
18820;SDS011;9539;59.332;18.034;2024-01-10T06:16:53;1.95;;;1.77;;
18820;SDS011;9539;59.332;18.034;2024-01-10T06:19:17;1.50;;;1.40;;
18820;SDS011;9539;59.332;18.034;2024-01-10T06:21:39;3.15;;;1.80;;
18820;SDS011;9539;59.332;18.034;2024-01-10T06:24:01;2.70;;;1.52;;
18820;SDS011;9539;59.332;18.034;2024-01-10T06:26:24;1.50;;;1.40;;
18820;SDS011;9539;59.332;18.034;2024-01-10T06:28:45;3.28;;;1.40;;
18820;SDS011;9539;59.332;18.034;2024-01-10T06:31:07;1.50;;;1.40;;
18820;SDS011;9539;59.332;18.034;2024-01-10T06:33:29;3.33;;;1.80;;
18820;SDS011;9539;59.332;18.034;2024-01-10T06:35:56;1.60;;;1.48;;
18820;SDS011;9539;59.332;18.034;2024-01-10T06:38:18;3.22;;;1.63;;
18820;SDS011;9539;59.332;18.034;2024-01-10T06:40:43;1.50;;;1.40;;
18820;SDS011;9539;59.332;18.034;2024-01-10T06:43:05;3.80;;;1.70;;
18820;SDS011;9539;59.332;18.034;2024-01-10T06:45:28;2.05;;;1.80;;
18820;SDS011;9539;59.332;18.034;2024-01-10T06:47:50;5.82;;;2.00;;
18820;SDS011;9539;59.332;18.034;2024-01-10T06:50:12;4.07;;;2.50;;
18820;SDS011;9539;59.332;18.034;2024-01-10T06:52:37;17.90;;;8.45;;
18820;SDS011;9539;59.332;18.034;2024-01-10T06:54:59;17.25;;;9.07;;
18820;SDS011;9539;59.332;18.034;2024-01-10T06:57:21;11.40;;;4.90;;
18820;SDS011;9539;59.332;18.034;2024-01-10T06:59:43;5.57;;;3.22;;
18820;SDS011;9539;59.332;18.034;2024-01-10T07:02:05;3.35;;;2.65;;
18820;SDS011;9539;59.332;18.034;2024-01-10T07:04:27;3.40;;;2.45;;
18820;SDS011;9539;59.332;18.034;2024-01-10T07:06:49;2.50;;;2.28;;
18820;SDS011;9539;59.332;18.034;2024-01-10T07:09:13;3.95;;;2.72;;
18820;SDS011;9539;59.332;18.034;2024-01-10T07:11:39;5.20;;;3.65;;
18820;SDS011;9539;59.332;18.034;2024-01-10T07:14:01;4.10;;;2.63;;
18820;SDS011;9539;59.332;18.034;2024-01-10T07:16:23;6.57;;;3.03;;
18820;SDS011;9539;59.332;18.034;2024-01-10T07:18:45;4.80;;;2.80;;
18820;SDS011;9539;59.332;18.034;2024-01-10T07:21:10;3.58;;;3.00;;
18820;SDS011;9539;59.332;18.034;2024-01-10T07:23:32;4.43;;;3.20;;
18820;SDS011;9539;59.332;18.034;2024-01-10T07:25:56;3.80;;;2.75;;
18820;SDS011;9539;59.332;18.034;2024-01-10T07:28:18;3.45;;;2.10;;
18820;SDS011;9539;59.332;18.034;2024-01-10T07:30:41;2.97;;;2.17;;
18820;SDS011;9539;59.332;18.034;2024-01-10T07:33:04;4.38;;;1.80;;
18820;SDS011;9539;59.332;18.034;2024-01-10T07:35:27;2.28;;;1.80;;
18820;SDS011;9539;59.332;18.034;2024-01-10T07:37:50;2.00;;;1.80;;
18820;SDS011;9539;59.332;18.034;2024-01-10T07:40:12;3.03;;;2.38;;
18820;SDS011;9539;59.332;18.034;2024-01-10T07:42:36;4.70;;;2.88;;
18820;SDS011;9539;59.332;18.034;2024-01-10T07:44:59;2.72;;;2.17;;
18820;SDS011;9539;59.332;18.034;2024-01-10T07:47:24;2.42;;;1.70;;
18820;SDS011;9539;59.332;18.034;2024-01-10T07:49:46;2.45;;;1.90;;
18820;SDS011;9539;59.332;18.034;2024-01-10T07:52:08;1.98;;;1.77;;
18820;SDS011;9539;59.332;18.034;2024-01-10T07:54:30;2.30;;;1.88;;
18820;SDS011;9539;59.332;18.034;2024-01-10T07:56:52;2.60;;;1.90;;
18820;SDS011;9539;59.332;18.034;2024-01-10T07:59:16;6.70;;;4.93;;
18820;SDS011;9539;59.332;18.034;2024-01-10T08:01:38;3.25;;;2.95;;
18820;SDS011;9539;59.332;18.034;2024-01-10T08:04:00;2.55;;;1.70;;
18820;SDS011;9539;59.332;18.034;2024-01-10T08:06:22;1.63;;;1.50;;
18820;SDS011;9539;59.332;18.034;2024-01-10T08:08:44;3.83;;;2.13;;
18820;SDS011;9539;59.332;18.034;2024-01-10T08:11:06;4.65;;;2.20;;
18820;SDS011;9539;59.332;18.034;2024-01-10T08:13:28;2.38;;;1.80;;
18820;SDS011;9539;59.332;18.034;2024-01-10T08:15:51;4.00;;;1.80;;
18820;SDS011;9539;59.332;18.034;2024-01-10T08:18:14;2.05;;;1.55;;
18820;SDS011;9539;59.332;18.034;2024-01-10T08:20:36;1.85;;;1.30;;
18820;SDS011;9539;59.332;18.034;2024-01-10T08:22:58;3.03;;;1.33;;
18820;SDS011;9539;59.332;18.034;2024-01-10T08:25:20;6.45;;;3.08;;
18820;SDS011;9539;59.332;18.034;2024-01-10T08:27:42;6.03;;;2.70;;
18820;SDS011;9539;59.332;18.034;2024-01-10T08:30:06;2.53;;;2.00;;
18820;SDS011;9539;59.332;18.034;2024-01-10T08:32:31;3.55;;;2.00;;
18820;SDS011;9539;59.332;18.034;2024-01-10T08:34:55;1.90;;;1.60;;
18820;SDS011;9539;59.332;18.034;2024-01-10T08:37:17;3.50;;;1.55;;
18820;SDS011;9539;59.332;18.034;2024-01-10T08:39:39;2.53;;;1.65;;
18820;SDS011;9539;59.332;18.034;2024-01-10T08:42:03;6.53;;;1.60;;
18820;SDS011;9539;59.332;18.034;2024-01-10T08:44:25;3.72;;;1.40;;
18820;SDS011;9539;59.332;18.034;2024-01-10T08:46:47;2.38;;;1.60;;
18820;SDS011;9539;59.332;18.034;2024-01-10T08:49:12;2.65;;;1.90;;
18820;SDS011;9539;59.332;18.034;2024-01-10T08:51:34;3.75;;;1.98;;
18820;SDS011;9539;59.332;18.034;2024-01-10T08:53:56;4.30;;;1.70;;
18820;SDS011;9539;59.332;18.034;2024-01-10T08:56:18;3.33;;;1.60;;
18820;SDS011;9539;59.332;18.034;2024-01-10T08:58:41;4.55;;;1.60;;
18820;SDS011;9539;59.332;18.034;2024-01-10T09:01:03;3.75;;;1.48;;
18820;SDS011;9539;59.332;18.034;2024-01-10T09:03:25;2.65;;;1.50;;
18820;SDS011;9539;59.332;18.034;2024-01-10T09:05:49;8.38;;;1.80;;
18820;SDS011;9539;59.332;18.034;2024-01-10T09:08:11;2.17;;;1.30;;
18820;SDS011;9539;59.332;18.034;2024-01-10T09:10:33;1.48;;;1.30;;
18820;SDS011;9539;59.332;18.034;2024-01-10T09:12:55;3.50;;;1.52;;
18820;SDS011;9539;59.332;18.034;2024-01-10T09:15:19;1.48;;;1.38;;
18820;SDS011;9539;59.332;18.034;2024-01-10T09:17:41;4.05;;;1.40;;
18820;SDS011;9539;59.332;18.034;2024-01-10T09:20:04;1.80;;;1.40;;
18820;SDS011;9539;59.332;18.034;2024-01-10T09:22:28;3.50;;;1.30;;
18820;SDS011;9539;59.332;18.034;2024-01-10T09:24:50;1.63;;;1.50;;
18820;SDS011;9539;59.332;18.034;2024-01-10T09:27:12;2.55;;;1.50;;
18820;SDS011;9539;59.332;18.034;2024-01-10T09:29:34;3.95;;;1.20;;
18820;SDS011;9539;59.332;18.034;2024-01-10T09:31:56;2.53;;;1.40;;
18820;SDS011;9539;59.332;18.034;2024-01-10T09:34:18;3.47;;;2.30;;
18820;SDS011;9539;59.332;18.034;2024-01-10T09:36:41;2.80;;;1.40;;
18820;SDS011;9539;59.332;18.034;2024-01-10T09:39:04;2.70;;;1.30;;
18820;SDS011;9539;59.332;18.034;2024-01-10T09:41:31;5.13;;;1.40;;
18820;SDS011;9539;59.332;18.034;2024-01-10T09:44:00;1.45;;;1.35;;
18820;SDS011;9539;59.332;18.034;2024-01-10T09:46:22;2.65;;;1.30;;
18820;SDS011;9539;59.332;18.034;2024-01-10T09:48:44;2.08;;;1.20;;
18820;SDS011;9539;59.332;18.034;2024-01-10T09:51:07;3.55;;;1.40;;
18820;SDS011;9539;59.332;18.034;2024-01-10T09:53:30;3.10;;;1.50;;
18820;SDS011;9539;59.332;18.034;2024-01-10T09:55:58;2.13;;;1.38;;
18820;SDS011;9539;59.332;18.034;2024-01-10T09:58:21;5.28;;;1.48;;
18820;SDS011;9539;59.332;18.034;2024-01-10T10:00:45;1.70;;;1.33;;
18820;SDS011;9539;59.332;18.034;2024-01-10T10:03:07;2.13;;;1.20;;
18820;SDS011;9539;59.332;18.034;2024-01-10T10:05:32;1.23;;;1.13;;
18820;SDS011;9539;59.332;18.034;2024-01-10T10:07:55;1.50;;;1.40;;
18820;SDS011;9539;59.332;18.034;2024-01-10T10:10:17;5.80;;;1.77;;
18820;SDS011;9539;59.332;18.034;2024-01-10T10:12:45;4.03;;;1.67;;
18820;SDS011;9539;59.332;18.034;2024-01-10T10:15:10;3.38;;;1.85;;
18820;SDS011;9539;59.332;18.034;2024-01-10T10:17:33;2.85;;;1.85;;
18820;SDS011;9539;59.332;18.034;2024-01-10T10:19:57;2.13;;;1.45;;
18820;SDS011;9539;59.332;18.034;2024-01-10T10:22:25;2.67;;;1.40;;
18820;SDS011;9539;59.332;18.034;2024-01-10T10:24:47;1.90;;;1.45;;
18820;SDS011;9539;59.332;18.034;2024-01-10T10:27:11;1.60;;;1.50;;
18820;SDS011;9539;59.332;18.034;2024-01-10T10:29:34;2.55;;;1.45;;
18820;SDS011;9539;59.332;18.034;2024-01-10T10:31:57;2.38;;;1.30;;
18820;SDS011;9539;59.332;18.034;2024-01-10T10:34:20;3.05;;;1.40;;
18820;SDS011;9539;59.332;18.034;2024-01-10T10:36:43;4.57;;;1.70;;
18820;SDS011;9539;59.332;18.034;2024-01-10T10:39:05;2.72;;;1.40;;
18820;SDS011;9539;59.332;18.034;2024-01-10T10:41:33;2.45;;;1.65;;
18820;SDS011;9539;59.332;18.034;2024-01-10T10:43:57;3.25;;;1.60;;
18820;SDS011;9539;59.332;18.034;2024-01-10T10:46:21;2.15;;;1.52;;
18820;SDS011;9539;59.332;18.034;2024-01-10T10:48:48;1.50;;;1.40;;
18820;SDS011;9539;59.332;18.034;2024-01-10T10:51:11;1.85;;;1.50;;
18820;SDS011;9539;59.332;18.034;2024-01-10T10:53:37;5.05;;;1.20;;
18820;SDS011;9539;59.332;18.034;2024-01-10T10:56:00;2.50;;;1.48;;
18820;SDS011;9539;59.332;18.034;2024-01-10T10:58:24;2.25;;;1.30;;
18820;SDS011;9539;59.332;18.034;2024-01-10T11:00:46;1.65;;;1.30;;
18820;SDS011;9539;59.332;18.034;2024-01-10T11:03:10;2.88;;;1.20;;
18820;SDS011;9539;59.332;18.034;2024-01-10T11:05:33;1.33;;;1.13;;
18820;SDS011;9539;59.332;18.034;2024-01-10T11:07:56;1.40;;;1.30;;
18820;SDS011;9539;59.332;18.034;2024-01-10T11:10:20;1.40;;;1.30;;
18820;SDS011;9539;59.332;18.034;2024-01-10T11:12:59;2.35;;;1.20;;
18820;SDS011;9539;59.332;18.034;2024-01-10T11:18:25;2.50;;;1.48;;
18820;SDS011;9539;59.332;18.034;2024-01-10T11:21:01;4.55;;;1.50;;
18820;SDS011;9539;59.332;18.034;2024-01-10T11:23:41;2.30;;;1.20;;
18820;SDS011;9539;59.332;18.034;2024-01-10T11:26:06;1.77;;;1.45;;
18820;SDS011;9539;59.332;18.034;2024-01-10T11:28:29;2.42;;;1.30;;
18820;SDS011;9539;59.332;18.034;2024-01-10T11:30:52;3.42;;;1.48;;
18820;SDS011;9539;59.332;18.034;2024-01-10T11:33:20;1.80;;;1.30;;
18820;SDS011;9539;59.332;18.034;2024-01-10T11:38:29;2.80;;;1.10;;
18820;SDS011;9539;59.332;18.034;2024-01-10T11:40:52;2.63;;;1.30;;
18820;SDS011;9539;59.332;18.034;2024-01-10T11:43:15;3.15;;;1.33;;
18820;SDS011;9539;59.332;18.034;2024-01-10T11:45:37;1.20;;;1.10;;
18820;SDS011;9539;59.332;18.034;2024-01-10T11:48:00;2.20;;;1.40;;
18820;SDS011;9539;59.332;18.034;2024-01-10T11:50:23;4.47;;;1.25;;
18820;SDS011;9539;59.332;18.034;2024-01-10T11:52:46;2.60;;;1.40;;
18820;SDS011;9539;59.332;18.034;2024-01-10T11:55:08;2.30;;;1.20;;
18820;SDS011;9539;59.332;18.034;2024-01-10T11:57:30;4.28;;;1.50;;
18820;SDS011;9539;59.332;18.034;2024-01-10T11:59:53;1.73;;;1.40;;
18820;SDS011;9539;59.332;18.034;2024-01-10T12:02:16;6.40;;;1.70;;
18820;SDS011;9539;59.332;18.034;2024-01-10T12:04:39;2.03;;;1.30;;
18820;SDS011;9539;59.332;18.034;2024-01-10T12:07:03;3.85;;;1.80;;
18820;SDS011;9539;59.332;18.034;2024-01-10T12:09:27;4.88;;;1.40;;
18820;SDS011;9539;59.332;18.034;2024-01-10T12:11:50;5.15;;;1.58;;
18820;SDS011;9539;59.332;18.034;2024-01-10T12:14:12;4.38;;;1.50;;
18820;SDS011;9539;59.332;18.034;2024-01-10T12:16:34;3.70;;;1.20;;
18820;SDS011;9539;59.332;18.034;2024-01-10T12:18:56;1.90;;;1.33;;
18820;SDS011;9539;59.332;18.034;2024-01-10T12:21:18;2.28;;;1.27;;
18820;SDS011;9539;59.332;18.034;2024-01-10T12:23:42;2.38;;;1.65;;
18820;SDS011;9539;59.332;18.034;2024-01-10T12:26:05;1.40;;;1.30;;
18820;SDS011;9539;59.332;18.034;2024-01-10T12:28:29;3.40;;;1.20;;
18820;SDS011;9539;59.332;18.034;2024-01-10T12:30:51;3.95;;;1.40;;
18820;SDS011;9539;59.332;18.034;2024-01-10T12:33:13;4.00;;;1.30;;
18820;SDS011;9539;59.332;18.034;2024-01-10T12:35:35;3.28;;;1.30;;
18820;SDS011;9539;59.332;18.034;2024-01-10T12:38:01;5.28;;;1.58;;
18820;SDS011;9539;59.332;18.034;2024-01-10T12:40:25;4.63;;;1.55;;
18820;SDS011;9539;59.332;18.034;2024-01-10T12:42:47;3.15;;;1.30;;
18820;SDS011;9539;59.332;18.034;2024-01-10T12:45:19;2.70;;;1.70;;
18820;SDS011;9539;59.332;18.034;2024-01-10T12:47:42;7.03;;;3.17;;
18820;SDS011;9539;59.332;18.034;2024-01-10T12:50:04;6.10;;;2.33;;
18820;SDS011;9539;59.332;18.034;2024-01-10T12:52:28;12.85;;;6.05;;
18820;SDS011;9539;59.332;18.034;2024-01-10T12:54:50;4.28;;;2.42;;
18820;SDS011;9539;59.332;18.034;2024-01-10T12:57:14;4.85;;;1.75;;
18820;SDS011;9539;59.332;18.034;2024-01-10T12:59:36;2.90;;;1.48;;
18820;SDS011;9539;59.332;18.034;2024-01-10T13:01:58;4.53;;;1.42;;
18820;SDS011;9539;59.332;18.034;2024-01-10T13:04:20;3.63;;;1.70;;
18820;SDS011;9539;59.332;18.034;2024-01-10T13:06:42;4.20;;;1.50;;
18820;SDS011;9539;59.332;18.034;2024-01-10T13:09:04;2.58;;;1.70;;
18820;SDS011;9539;59.332;18.034;2024-01-10T13:11:26;2.97;;;1.40;;
18820;SDS011;9539;59.332;18.034;2024-01-10T13:13:51;3.42;;;1.40;;
18820;SDS011;9539;59.332;18.034;2024-01-10T13:16:13;2.70;;;1.33;;
18820;SDS011;9539;59.332;18.034;2024-01-10T13:18:35;6.50;;;1.40;;
18820;SDS011;9539;59.332;18.034;2024-01-10T13:20:57;5.80;;;1.48;;
18820;SDS011;9539;59.332;18.034;2024-01-10T13:23:19;3.03;;;1.38;;
18820;SDS011;9539;59.332;18.034;2024-01-10T13:25:43;5.10;;;1.40;;
18820;SDS011;9539;59.332;18.034;2024-01-10T13:28:05;1.42;;;1.33;;
18820;SDS011;9539;59.332;18.034;2024-01-10T13:30:28;2.15;;;1.60;;
18820;SDS011;9539;59.332;18.034;2024-01-10T13:32:50;4.18;;;1.50;;
18820;SDS011;9539;59.332;18.034;2024-01-10T13:35:12;2.53;;;1.50;;
18820;SDS011;9539;59.332;18.034;2024-01-10T13:37:36;4.15;;;1.50;;
18820;SDS011;9539;59.332;18.034;2024-01-10T13:39:58;1.63;;;1.33;;
18820;SDS011;9539;59.332;18.034;2024-01-10T13:42:20;1.73;;;1.48;;
18820;SDS011;9539;59.332;18.034;2024-01-10T13:44:43;3.63;;;1.38;;
18820;SDS011;9539;59.332;18.034;2024-01-10T13:47:08;2.70;;;1.40;;
18820;SDS011;9539;59.332;18.034;2024-01-10T13:49:29;3.05;;;1.70;;
18820;SDS011;9539;59.332;18.034;2024-01-10T13:51:52;3.30;;;1.40;;
18820;SDS011;9539;59.332;18.034;2024-01-10T13:54:14;5.53;;;1.73;;
18820;SDS011;9539;59.332;18.034;2024-01-10T13:56:36;3.22;;;1.60;;
18820;SDS011;9539;59.332;18.034;2024-01-10T13:58:59;4.75;;;1.27;;
18820;SDS011;9539;59.332;18.034;2024-01-10T14:01:20;3.67;;;1.50;;
18820;SDS011;9539;59.332;18.034;2024-01-10T14:03:43;2.33;;;1.25;;
18820;SDS011;9539;59.332;18.034;2024-01-10T14:06:05;4.15;;;1.20;;
18820;SDS011;9539;59.332;18.034;2024-01-10T14:08:27;1.95;;;1.30;;
18820;SDS011;9539;59.332;18.034;2024-01-10T14:10:49;3.53;;;1.30;;
18820;SDS011;9539;59.332;18.034;2024-01-10T14:13:11;5.03;;;1.65;;
18820;SDS011;9539;59.332;18.034;2024-01-10T14:15:33;2.67;;;1.38;;
18820;SDS011;9539;59.332;18.034;2024-01-10T14:17:55;1.98;;;1.30;;
18820;SDS011;9539;59.332;18.034;2024-01-10T14:20:19;2.92;;;1.40;;
18820;SDS011;9539;59.332;18.034;2024-01-10T14:22:41;2.33;;;1.27;;
18820;SDS011;9539;59.332;18.034;2024-01-10T14:25:03;1.98;;;1.40;;
18820;SDS011;9539;59.332;18.034;2024-01-10T14:27:27;2.30;;;1.10;;